createdAt,value
2018-12-08T00:00:35.180Z,8.68
2018-12-08T00:01:39.392Z,6.47
2018-12-08T00:02:43.433Z,7.80
2018-12-08T00:03:48.070Z,7.30
2018-12-08T00:04:52.585Z,7.58
2018-12-08T00:05:56.626Z,9.33
2018-12-08T00:07:00.633Z,10.63
2018-12-08T00:08:04.665Z,9.15
2018-12-08T00:09:08.869Z,8.10
2018-12-08T00:10:12.926Z,8.95
2018-12-08T00:11:16.928Z,7.95
2018-12-08T00:12:21.009Z,7.50
2018-12-08T00:13:24.980Z,7.08
2018-12-08T00:14:29.002Z,9.08
2018-12-08T00:15:33.838Z,8.58
2018-12-08T00:16:38.582Z,8.60
2018-12-08T00:17:42.721Z,7.30
2018-12-08T00:18:46.677Z,7.92
2018-12-08T00:19:50.628Z,5.28
2018-12-08T00:20:54.724Z,6.22
2018-12-08T00:21:58.736Z,6.70
2018-12-08T00:23:03.511Z,5.70
2018-12-08T00:24:07.489Z,4.87
2018-12-08T00:25:11.529Z,5.10
2018-12-08T00:26:15.494Z,4.80
2018-12-08T00:27:19.552Z,6.50
2018-12-08T00:28:23.541Z,5.90
2018-12-08T00:29:27.559Z,5.42
2018-12-08T00:30:42.502Z,5.47
2018-12-08T00:31:47.501Z,5.22
2018-12-08T00:32:51.449Z,5.70
2018-12-08T00:33:55.502Z,6.03
2018-12-08T00:34:59.505Z,4.87
2018-12-08T00:36:03.577Z,5.03
2018-12-08T00:37:07.700Z,4.67
2018-12-08T00:38:11.934Z,6.00
2018-12-08T00:39:16.046Z,4.97
2018-12-08T00:40:20.257Z,5.40
2018-12-08T00:41:24.361Z,5.12
2018-12-08T00:42:28.430Z,5.30
2018-12-08T00:43:32.526Z,4.95
2018-12-08T00:44:36.665Z,5.80
2018-12-08T00:45:41.360Z,5.15
2018-12-08T00:46:45.454Z,4.83
2018-12-08T00:47:49.490Z,5.37
2018-12-08T00:48:53.526Z,5.12
2018-12-08T00:49:57.605Z,4.60
2018-12-08T00:51:01.646Z,4.83
2018-12-08T00:52:05.808Z,4.65
2018-12-08T00:53:09.886Z,4.70
2018-12-08T00:54:13.967Z,4.80
2018-12-08T00:55:18.089Z,4.30
2018-12-08T00:56:22.118Z,4.40
2018-12-08T00:57:26.344Z,3.98
2018-12-08T00:58:30.301Z,4.05
2018-12-08T00:59:34.377Z,3.77
2018-12-08T01:00:38.561Z,4.12
2018-12-08T01:01:43.009Z,4.15
2018-12-08T01:02:47.085Z,4.37
2018-12-08T01:03:51.273Z,3.77
2018-12-08T01:05:01.703Z,3.85
2018-12-08T01:06:05.701Z,3.55
2018-12-08T01:07:09.725Z,3.70
2018-12-08T01:08:13.740Z,3.83
2018-12-08T01:09:17.749Z,3.77
2018-12-08T01:10:22.137Z,3.37
2018-12-08T01:11:26.262Z,3.35
2018-12-08T01:12:30.318Z,3.72
2018-12-08T01:13:34.369Z,3.47
2018-12-08T01:14:38.466Z,3.70
2018-12-08T01:15:42.440Z,3.83
2018-12-08T01:16:46.566Z,4.15
2018-12-08T01:17:50.660Z,3.90
2018-12-08T01:18:54.703Z,4.20
2018-12-08T01:19:58.666Z,4.70
2018-12-08T01:21:03.703Z,4.40
2018-12-08T01:22:07.798Z,4.30
2018-12-08T01:23:11.750Z,4.65
2018-12-08T01:24:15.694Z,4.33
2018-12-08T01:25:19.660Z,4.65
2018-12-08T01:26:23.685Z,4.42
2018-12-08T01:30:08.375Z,4.50
2018-12-08T01:31:12.389Z,4.95
2018-12-08T01:32:16.390Z,5.25
2018-12-08T01:33:20.731Z,4.47
2018-12-08T01:34:24.750Z,5.47
2018-12-08T01:35:28.716Z,4.95
2018-12-08T01:36:37.806Z,4.80
2018-12-08T01:37:41.797Z,4.75
2018-12-08T01:38:45.849Z,4.72
2018-12-08T01:39:49.813Z,4.33
2018-12-08T01:40:53.940Z,4.22
2018-12-08T01:41:57.976Z,3.90
2018-12-08T01:43:01.932Z,3.80
2018-12-08T01:44:05.945Z,3.58
2018-12-08T01:45:09.942Z,3.77
2018-12-08T01:46:14.033Z,4.22
2018-12-08T01:47:18.103Z,4.03
2018-12-08T01:48:23.170Z,3.77
2018-12-08T01:49:27.323Z,3.80
2018-12-08T01:50:31.494Z,4.15
2018-12-08T01:51:35.728Z,3.52
2018-12-08T01:52:39.733Z,3.47
2018-12-08T01:53:43.733Z,3.77
2018-12-08T01:54:53.856Z,4.00
2018-12-08T01:55:57.820Z,3.90
2018-12-08T01:57:01.846Z,3.65
2018-12-08T01:58:05.941Z,3.65
2018-12-08T01:59:10.050Z,3.50
2018-12-08T02:00:14.158Z,4.35
2018-12-08T02:01:18.124Z,4.45
2018-12-08T02:02:22.073Z,3.70
2018-12-08T02:03:26.105Z,4.10
2018-12-08T02:04:30.046Z,4.33
2018-12-08T02:05:34.453Z,3.75
2018-12-08T02:06:38.592Z,3.65
2018-12-08T02:07:46.768Z,3.55
2018-12-08T02:08:50.829Z,4.50
2018-12-08T02:09:54.858Z,8.63
2018-12-08T02:10:59.003Z,8.83
2018-12-08T02:12:03.029Z,13.68
2018-12-08T02:13:07.125Z,9.70
2018-12-08T02:14:11.129Z,9.83
2018-12-08T02:15:15.292Z,9.60
2018-12-08T02:16:19.346Z,10.18
2018-12-08T02:17:23.369Z,9.00
2018-12-08T02:18:33.315Z,7.53
2018-12-08T02:19:37.336Z,8.40
2018-12-08T02:20:41.370Z,8.18
2018-12-08T02:21:45.433Z,7.90
2018-12-08T02:22:49.517Z,7.10
2018-12-08T02:23:53.550Z,6.67
2018-12-08T02:24:57.554Z,6.10
2018-12-08T02:26:01.637Z,5.37
2018-12-08T02:27:05.681Z,5.87
2018-12-08T02:28:09.722Z,5.22
2018-12-08T02:29:13.773Z,5.92
2018-12-08T02:30:17.793Z,4.65
2018-12-08T02:31:21.922Z,5.37
2018-12-08T02:32:26.056Z,4.35
2018-12-08T02:33:30.306Z,4.50
2018-12-08T02:34:34.441Z,3.90
2018-12-08T02:35:38.444Z,4.30
2018-12-08T02:36:42.509Z,4.33
2018-12-08T02:37:46.548Z,4.30
2018-12-08T02:38:50.545Z,4.28
2018-12-08T02:39:54.515Z,4.80
2018-12-08T02:40:58.554Z,5.20
2018-12-08T02:42:02.630Z,5.87
2018-12-08T02:43:06.715Z,4.70
2018-12-08T02:44:10.750Z,5.25
2018-12-08T02:45:15.430Z,4.55
2018-12-08T02:46:19.409Z,4.20
2018-12-08T02:47:23.449Z,5.05
2018-12-08T02:48:27.448Z,4.25
2018-12-08T02:49:31.474Z,4.58
2018-12-08T02:50:35.572Z,4.40
2018-12-08T02:51:39.622Z,4.28
2018-12-08T02:52:43.750Z,4.12
2018-12-08T02:53:47.804Z,4.20
2018-12-08T02:54:51.817Z,4.30
2018-12-08T02:55:56.238Z,3.77
2018-12-08T02:57:00.232Z,4.25
2018-12-08T02:58:04.638Z,3.40
2018-12-08T02:59:08.652Z,3.60
2018-12-08T03:00:15.692Z,3.85
2018-12-08T03:01:19.728Z,3.67
2018-12-08T03:02:23.780Z,3.30
2018-12-08T03:03:27.816Z,3.55
2018-12-08T03:04:31.854Z,4.12
2018-12-08T03:05:36.022Z,3.92
2018-12-08T03:06:40.055Z,3.52
2018-12-08T03:07:44.137Z,3.33
2018-12-08T03:08:48.184Z,3.58
2018-12-08T03:09:52.169Z,3.60
2018-12-08T03:10:56.193Z,3.50
2018-12-08T03:12:00.230Z,3.35
2018-12-08T03:13:04.269Z,3.45
2018-12-08T03:14:08.346Z,3.47
2018-12-08T03:15:12.605Z,2.80
2018-12-08T03:16:17.588Z,2.77
2018-12-08T03:17:21.921Z,2.50
2018-12-08T03:18:26.184Z,2.70
2018-12-08T03:19:30.247Z,2.40
2018-12-08T03:20:34.261Z,2.17
2018-12-08T03:21:38.230Z,3.02
2018-12-08T03:22:42.174Z,2.08
2018-12-08T03:23:46.146Z,2.20
2018-12-08T03:24:50.157Z,2.67
2018-12-08T03:25:54.157Z,2.27
2018-12-08T03:26:58.121Z,1.95
2018-12-08T03:28:02.196Z,1.60
2018-12-08T03:29:06.293Z,2.15
2018-12-08T03:30:10.313Z,1.35
2018-12-08T03:31:14.538Z,1.40
2018-12-08T03:32:18.514Z,1.67
2018-12-08T03:33:22.539Z,0.95
2018-12-08T03:34:26.593Z,1.30
2018-12-08T03:35:31.483Z,1.10
2018-12-08T03:36:36.055Z,1.20
2018-12-08T03:37:39.966Z,1.77
2018-12-08T03:38:43.977Z,1.77
2018-12-08T03:39:47.916Z,1.30
2018-12-08T03:40:51.951Z,1.35
2018-12-08T03:41:55.908Z,2.08
2018-12-08T03:42:59.913Z,1.70
2018-12-08T03:44:04.233Z,1.30
2018-12-08T03:45:08.314Z,1.35
2018-12-08T03:46:12.469Z,1.40
2018-12-08T03:47:16.472Z,2.00
2018-12-08T03:48:20.432Z,2.20
2018-12-08T03:49:24.362Z,1.70
2018-12-08T03:50:28.435Z,1.30
2018-12-08T03:51:32.441Z,1.50
2018-12-08T03:52:36.458Z,1.05
2018-12-08T03:53:40.393Z,1.50
2018-12-08T03:54:44.391Z,1.40
2018-12-08T03:55:49.366Z,1.60
2018-12-08T03:56:59.659Z,1.30
2018-12-08T03:58:03.605Z,0.90
2018-12-08T03:59:07.588Z,1.00
2018-12-08T04:00:11.744Z,1.12
2018-12-08T04:01:15.831Z,1.00
2018-12-08T04:02:19.905Z,1.10
2018-12-08T04:03:23.971Z,1.00
2018-12-08T04:04:27.990Z,0.85
2018-12-08T04:05:31.889Z,1.50
2018-12-08T04:06:35.981Z,1.05
2018-12-08T04:07:40.029Z,1.32
2018-12-08T04:08:44.101Z,1.15
2018-12-08T04:09:49.108Z,1.12
2018-12-08T04:10:53.517Z,1.30
2018-12-08T04:11:57.613Z,1.27
2018-12-08T04:13:01.785Z,1.50
2018-12-08T04:14:05.773Z,1.50
2018-12-08T04:15:09.921Z,1.62
2018-12-08T04:16:13.993Z,1.40
2018-12-08T04:17:18.007Z,1.45
2018-12-08T04:18:22.692Z,1.77
2018-12-08T04:19:26.724Z,1.55
2018-12-08T04:20:30.740Z,1.62
2018-12-08T04:21:34.708Z,1.70
2018-12-08T04:22:38.677Z,1.92
2018-12-08T04:23:42.653Z,1.98
2018-12-08T04:24:46.678Z,1.80
2018-12-08T04:25:50.677Z,1.77
2018-12-08T04:26:54.671Z,1.85
2018-12-08T04:27:58.618Z,1.75
2018-12-08T04:29:02.596Z,1.52
2018-12-08T04:30:07.263Z,1.45
2018-12-08T04:31:11.245Z,1.70
2018-12-08T04:32:15.256Z,1.50
2018-12-08T04:33:19.244Z,1.60
2018-12-08T04:34:23.265Z,1.87
2018-12-08T04:35:27.272Z,1.60
2018-12-08T04:36:31.267Z,1.62
2018-12-08T04:37:35.289Z,2.10
2018-12-08T04:38:39.369Z,2.25
2018-12-08T04:39:43.289Z,2.00
2018-12-08T04:40:47.382Z,1.95
2018-12-08T04:41:51.337Z,1.65
2018-12-08T04:42:55.294Z,1.50
2018-12-08T04:44:00.297Z,1.75
2018-12-08T04:45:04.664Z,1.55
2018-12-08T04:46:08.657Z,1.45
2018-12-08T04:47:12.709Z,1.00
2018-12-08T04:48:17.709Z,1.85
2018-12-08T04:49:21.770Z,2.22
2018-12-08T04:50:25.919Z,1.45
2018-12-08T04:51:29.975Z,1.95
2018-12-08T04:52:33.997Z,1.80
2018-12-08T04:53:38.349Z,3.00
2018-12-08T04:54:42.430Z,2.00
2018-12-08T04:55:46.481Z,0.50
2018-12-08T04:56:50.468Z,0.35
2018-12-08T04:57:54.506Z,0.65
2018-12-08T04:58:58.511Z,2.22
2018-12-08T05:00:02.632Z,0.55
2018-12-08T05:01:06.683Z,0.50
2018-12-08T05:02:10.709Z,0.60
2018-12-08T05:03:15.005Z,0.53
2018-12-08T05:04:19.001Z,2.55
2018-12-08T05:05:23.070Z,0.47
2018-12-08T05:06:27.052Z,0.47
2018-12-08T05:07:31.119Z,0.53
2018-12-08T05:08:35.081Z,0.15
2018-12-08T05:09:39.027Z,0.25
2018-12-08T05:10:42.998Z,0.40
2018-12-08T05:11:46.969Z,0.40
2018-12-08T05:12:50.953Z,0.80
2018-12-08T05:13:54.962Z,0.70
2018-12-08T05:14:58.928Z,0.20
2018-12-08T05:16:02.965Z,1.27
2018-12-08T05:17:07.123Z,0.70
2018-12-08T05:18:11.120Z,0.75
2018-12-08T05:19:15.157Z,0.70
2018-12-08T05:20:19.197Z,0.93
2018-12-08T05:21:23.260Z,0.98
2018-12-08T05:22:27.336Z,1.12
2018-12-08T05:23:31.402Z,1.20
2018-12-08T05:24:35.617Z,1.35
2018-12-08T05:25:39.675Z,0.90
2018-12-08T05:26:43.717Z,1.82
2018-12-08T05:27:47.674Z,0.90
2018-12-08T05:28:51.612Z,1.17
2018-12-08T05:29:55.604Z,1.00
2018-12-08T05:30:59.575Z,0.68
2018-12-08T05:32:03.689Z,0.90
2018-12-08T05:33:07.782Z,1.20
2018-12-08T05:34:12.129Z,3.33
2018-12-08T05:35:16.203Z,1.22
2018-12-08T05:36:20.266Z,3.45
2018-12-08T05:37:24.272Z,5.03
2018-12-08T05:38:28.442Z,5.25
2018-12-08T05:39:32.413Z,0.90
2018-12-08T05:40:36.418Z,0.75
2018-12-08T05:41:40.424Z,1.40
2018-12-08T05:42:44.453Z,2.10
2018-12-08T05:43:48.487Z,1.32
2018-12-08T05:44:52.616Z,1.35
2018-12-08T05:45:56.973Z,1.55
2018-12-08T05:47:00.897Z,1.42
2018-12-08T05:48:04.913Z,1.10
2018-12-08T05:49:08.865Z,1.00
2018-12-08T05:50:12.877Z,1.17
2018-12-08T05:51:16.894Z,1.12
2018-12-08T05:52:20.901Z,1.05
2018-12-08T05:53:24.913Z,1.10
2018-12-08T05:54:28.993Z,1.05
2018-12-08T05:55:32.978Z,1.20
2018-12-08T05:56:36.961Z,1.00
2018-12-08T05:57:40.916Z,1.12
2018-12-08T05:58:44.922Z,1.30
2018-12-08T05:59:49.161Z,1.20
2018-12-08T06:00:53.148Z,1.75
2018-12-08T06:01:57.200Z,1.35
2018-12-08T06:03:01.131Z,1.60
2018-12-08T06:04:05.147Z,1.62
2018-12-08T06:05:09.452Z,1.10
2018-12-08T06:06:16.401Z,1.27
2018-12-08T06:07:20.363Z,1.52
2018-12-08T06:08:24.814Z,1.95
2018-12-08T06:09:28.874Z,2.90
2018-12-08T06:10:32.949Z,2.37
2018-12-08T06:11:37.010Z,1.52
2018-12-08T06:12:41.075Z,1.90
2018-12-08T06:13:45.135Z,1.65
2018-12-08T06:14:49.080Z,2.92
2018-12-08T06:15:53.042Z,1.60
2018-12-08T06:16:57.021Z,1.47
2018-12-08T06:18:02.051Z,1.67
2018-12-08T06:19:06.162Z,2.02
2018-12-08T06:20:10.207Z,1.50
2018-12-08T06:21:14.344Z,1.95
2018-12-08T06:22:18.437Z,1.77
2018-12-08T06:23:22.582Z,2.05
2018-12-08T06:24:26.647Z,1.92
2018-12-08T06:25:34.181Z,3.67
2018-12-08T06:26:47.434Z,1.70
2018-12-08T06:28:18.685Z,2.65
2018-12-08T06:29:22.733Z,2.77
2018-12-08T06:30:26.892Z,2.22
2018-12-08T06:31:30.913Z,1.60
2018-12-08T06:32:35.042Z,1.98
2018-12-08T06:33:38.997Z,3.08
2018-12-08T06:34:43.069Z,1.70
2018-12-08T06:35:47.317Z,1.77
2018-12-08T06:36:51.471Z,2.00
2018-12-08T06:37:55.545Z,2.27
2018-12-08T06:39:00.155Z,2.15
2018-12-08T06:40:04.597Z,2.27
2018-12-08T06:41:08.888Z,1.80
2018-12-08T06:42:13.072Z,1.60
2018-12-08T06:43:17.050Z,1.85
2018-12-08T06:44:21.090Z,2.17
2018-12-08T06:45:25.125Z,1.40
2018-12-08T06:46:29.415Z,2.15
2018-12-08T06:47:33.588Z,1.82
2018-12-08T06:48:37.652Z,2.17
2018-12-08T06:49:42.847Z,6.15
2018-12-08T06:50:46.853Z,2.40
2018-12-08T06:51:50.976Z,2.20
2018-12-08T06:52:55.102Z,1.80
2018-12-08T06:53:59.224Z,1.87
2018-12-08T06:55:03.380Z,1.80
2018-12-08T06:56:07.475Z,2.10
2018-12-08T06:57:11.505Z,1.80
2018-12-08T06:58:15.709Z,2.67
2018-12-08T06:59:19.984Z,2.30
2018-12-08T07:00:24.181Z,2.20
2018-12-08T07:01:28.287Z,2.80
2018-12-08T07:02:33.314Z,2.10
2018-12-08T07:03:37.396Z,2.33
2018-12-08T07:04:41.587Z,2.50
2018-12-08T07:05:45.691Z,3.22
2018-12-08T07:06:50.870Z,3.22
2018-12-08T07:10:29.661Z,3.83
2018-12-08T07:11:33.854Z,3.60
2018-12-08T07:12:38.037Z,4.30
2018-12-08T07:13:42.196Z,5.03
2018-12-08T07:14:46.373Z,4.03
2018-12-08T07:15:50.605Z,3.87
2018-12-08T07:16:54.665Z,4.72
2018-12-08T07:17:58.766Z,3.02
2018-12-08T07:19:03.766Z,4.42
2018-12-08T07:20:08.106Z,5.00
2018-12-08T07:21:12.166Z,4.33
2018-12-08T07:22:16.171Z,4.25
2018-12-08T07:23:20.216Z,3.15
2018-12-08T07:24:24.346Z,4.92
2018-12-08T07:25:28.665Z,5.78
2018-12-08T07:26:32.753Z,3.95
2018-12-08T07:27:36.870Z,4.15
2018-12-08T07:28:41.067Z,3.00
2018-12-08T07:29:45.263Z,3.08
2018-12-08T07:30:49.336Z,3.90
2018-12-08T07:31:53.696Z,3.90
2018-12-08T07:32:57.845Z,3.70
2018-12-08T07:34:02.044Z,3.65
2018-12-08T07:35:06.572Z,3.20
2018-12-08T07:36:10.776Z,2.85
2018-12-08T07:37:15.855Z,3.55
2018-12-08T07:38:20.019Z,3.37
2018-12-08T07:39:24.268Z,3.15
2018-12-08T07:40:28.425Z,4.10
2018-12-08T07:41:32.541Z,3.83
2018-12-08T07:42:36.617Z,3.90
2018-12-08T07:43:40.780Z,3.22
2018-12-08T07:44:45.218Z,4.28
2018-12-08T07:45:49.417Z,3.90
2018-12-08T07:46:53.721Z,3.80
2018-12-08T07:47:57.862Z,3.70
2018-12-08T07:49:02.186Z,4.08
2018-12-08T07:50:08.864Z,3.15
2018-12-08T07:51:13.012Z,3.30
2018-12-08T07:52:17.212Z,4.30
2018-12-08T07:53:21.198Z,4.45
2018-12-08T07:54:25.422Z,3.75
2018-12-08T07:55:29.721Z,4.47
2018-12-08T07:56:34.100Z,3.77
2018-12-08T07:57:38.127Z,3.52
2018-12-08T07:58:42.133Z,4.40
2018-12-08T07:59:46.184Z,4.08
2018-12-08T08:00:50.357Z,4.20
2018-12-08T08:01:54.537Z,3.60
2018-12-08T08:02:58.661Z,4.10
2018-12-08T08:04:03.705Z,4.20
2018-12-08T08:05:08.947Z,4.17
2018-12-08T08:06:13.102Z,3.75
2018-12-08T08:07:17.289Z,4.10
2018-12-08T08:08:21.321Z,5.28
2018-12-08T08:09:25.481Z,4.70
2018-12-08T08:10:29.644Z,4.22
2018-12-08T08:11:33.808Z,4.83
2018-12-08T08:12:38.329Z,4.50
2018-12-08T08:13:42.370Z,4.22
2018-12-08T08:14:46.437Z,4.03
2018-12-08T08:15:50.445Z,4.40
2018-12-08T08:16:54.537Z,4.78
2018-12-08T08:17:58.597Z,4.60
2018-12-08T08:19:03.686Z,4.60
2018-12-08T08:20:10.157Z,3.98
2018-12-08T08:21:14.201Z,4.63
2018-12-08T08:22:18.347Z,5.05
2018-12-08T08:23:22.721Z,3.77
2018-12-08T08:24:26.856Z,4.65
2018-12-08T08:25:31.022Z,4.78
2018-12-08T08:26:35.289Z,4.47
2018-12-08T08:27:41.752Z,4.45
2018-12-08T08:28:51.894Z,4.87
2018-12-08T08:29:56.914Z,5.25
2018-12-08T08:31:01.499Z,4.75
2018-12-08T08:32:05.846Z,4.45
2018-12-08T08:33:10.169Z,3.67
2018-12-08T08:34:14.907Z,4.50
2018-12-08T08:35:19.118Z,4.20
2018-12-08T08:36:23.446Z,4.33
2018-12-08T08:37:27.619Z,4.47
2018-12-08T08:38:31.858Z,5.08
2018-12-08T08:39:36.093Z,4.60
2018-12-08T08:40:40.283Z,5.12
2018-12-08T08:41:44.335Z,3.77
2018-12-08T08:42:48.428Z,3.90
2018-12-08T08:43:52.659Z,4.85
2018-12-08T08:44:56.766Z,4.03
2018-12-08T08:46:00.823Z,4.67
2018-12-08T08:47:04.956Z,4.45
2018-12-08T08:48:09.647Z,4.95
2018-12-08T08:49:13.761Z,4.17
2018-12-08T08:50:17.882Z,3.90
2018-12-08T08:51:22.002Z,5.97
2018-12-08T08:52:26.282Z,7.83
2018-12-08T08:53:33.279Z,6.65
2018-12-08T08:54:37.601Z,5.53
2018-12-08T08:55:42.710Z,5.10
2018-12-08T08:56:48.138Z,6.25
2018-12-08T08:57:58.604Z,5.92
2018-12-08T08:59:02.630Z,3.95
2018-12-08T09:00:09.151Z,4.25
2018-12-08T09:01:13.246Z,5.58
2018-12-08T09:02:17.352Z,4.15
2018-12-08T09:03:21.484Z,4.00
2018-12-08T09:04:25.668Z,4.35
2018-12-08T09:05:29.882Z,3.90
2018-12-08T09:06:34.846Z,4.00
2018-12-08T09:10:13.001Z,3.60
2018-12-08T09:11:17.468Z,3.52
2018-12-08T09:12:21.493Z,5.10
2018-12-08T09:13:25.639Z,3.45
2018-12-08T09:14:29.662Z,4.85
2018-12-08T09:15:33.918Z,4.20
2018-12-08T09:16:38.095Z,4.12
2018-12-08T09:17:42.233Z,3.58
2018-12-08T09:18:46.388Z,4.97
2018-12-08T09:19:50.429Z,3.65
2018-12-08T09:20:54.581Z,3.72
2018-12-08T09:21:58.888Z,3.85
2018-12-08T09:23:02.933Z,4.33
2018-12-08T09:24:07.078Z,3.35
2018-12-08T09:25:12.268Z,4.20
2018-12-08T09:26:16.509Z,3.52
2018-12-08T09:27:20.615Z,4.15
2018-12-08T09:28:24.842Z,3.20
2018-12-08T09:29:28.960Z,3.05
2018-12-08T09:30:33.046Z,3.12
2018-12-08T09:31:37.259Z,3.50
2018-12-08T09:32:41.465Z,4.08
2018-12-08T09:33:46.659Z,3.95
2018-12-08T09:34:50.832Z,3.35
2018-12-08T09:35:55.099Z,3.55
2018-12-08T09:36:59.355Z,3.80
2018-12-08T09:38:03.440Z,4.60
2018-12-08T09:39:08.489Z,3.45
2018-12-08T09:40:12.625Z,3.27
2018-12-08T09:41:16.748Z,3.50
2018-12-08T09:42:20.900Z,3.20
2018-12-08T09:43:25.020Z,3.20
2018-12-08T09:44:28.997Z,3.37
2018-12-08T09:45:33.080Z,3.87
2018-12-08T09:46:37.204Z,3.87
2018-12-08T09:47:41.554Z,3.40
2018-12-08T09:48:45.723Z,3.47
2018-12-08T09:49:50.760Z,3.15
2018-12-08T09:50:54.927Z,3.65
2018-12-08T09:51:59.085Z,3.65
2018-12-08T09:53:16.032Z,3.00
2018-12-08T09:54:20.039Z,2.92
2018-12-08T09:55:23.951Z,3.00
2018-12-08T09:56:27.958Z,3.52
2018-12-08T09:57:31.970Z,3.75
2018-12-08T09:58:35.940Z,4.28
2018-12-08T09:59:39.949Z,3.77
2018-12-08T10:00:43.869Z,3.58
2018-12-08T10:01:47.858Z,3.58
2018-12-08T10:02:51.730Z,3.98
2018-12-08T10:03:55.721Z,3.87
2018-12-08T10:04:59.661Z,4.70
2018-12-08T10:06:03.660Z,3.83
2018-12-08T10:07:07.755Z,2.92
2018-12-08T10:08:11.801Z,4.37
2018-12-08T10:09:15.785Z,4.25
2018-12-08T10:10:19.798Z,5.65
2018-12-08T10:11:23.880Z,4.33
2018-12-08T10:12:27.852Z,4.28
2018-12-08T10:13:31.832Z,4.08
2018-12-08T10:14:36.926Z,4.72
2018-12-08T10:15:41.014Z,3.12
2018-12-08T10:16:45.133Z,4.33
2018-12-08T10:17:49.202Z,3.70
2018-12-08T10:18:53.334Z,4.05
2018-12-08T10:19:57.399Z,4.00
2018-12-08T10:21:01.685Z,3.92
2018-12-08T10:22:05.737Z,3.58
2018-12-08T10:23:10.038Z,4.30
2018-12-08T10:24:14.122Z,3.33
2018-12-08T10:25:18.288Z,3.42
2018-12-08T10:26:22.528Z,4.03
2018-12-08T10:27:26.632Z,3.95
2018-12-08T10:28:30.756Z,4.33
2018-12-08T10:29:35.237Z,4.50
2018-12-08T10:30:39.313Z,4.12
2018-12-08T10:31:43.466Z,3.62
2018-12-08T10:32:47.523Z,4.00
2018-12-08T10:33:51.799Z,4.05
2018-12-08T10:34:56.039Z,3.50
2018-12-08T10:36:00.085Z,3.42
2018-12-08T10:37:04.327Z,4.00
2018-12-08T10:38:08.560Z,3.47
2018-12-08T10:39:13.046Z,3.52
2018-12-08T10:40:17.131Z,3.17
2018-12-08T10:41:21.260Z,3.27
2018-12-08T10:42:39.664Z,3.58
2018-12-08T10:43:47.241Z,3.00
2018-12-08T10:44:51.444Z,3.00
2018-12-08T10:45:55.526Z,3.85
2018-12-08T10:46:59.717Z,3.55
2018-12-08T10:48:03.964Z,3.27
2018-12-08T10:49:08.215Z,4.35
2018-12-08T10:50:12.388Z,3.40
2018-12-08T10:51:16.559Z,3.00
2018-12-08T10:52:20.719Z,3.60
2018-12-08T10:53:24.832Z,3.10
2018-12-08T10:54:28.891Z,2.80
2018-12-08T10:55:33.086Z,3.05
2018-12-08T10:56:37.240Z,3.30
2018-12-08T10:57:41.458Z,3.77
2018-12-08T10:58:46.109Z,4.30
2018-12-08T10:59:52.032Z,3.77
2018-12-08T11:01:01.557Z,3.10
2018-12-08T11:02:08.001Z,3.80
2018-12-08T11:03:17.323Z,3.72
2018-12-08T11:04:21.425Z,2.52
2018-12-08T11:05:25.592Z,3.02
2018-12-08T11:06:29.716Z,3.40
2018-12-08T11:07:33.774Z,3.20
2018-12-08T11:08:37.856Z,3.87
2018-12-08T11:09:41.976Z,3.52
2018-12-08T11:10:45.995Z,3.65
2018-12-08T11:11:50.363Z,3.72
2018-12-08T11:12:54.597Z,3.10
2018-12-08T11:13:58.681Z,2.92
2018-12-08T11:15:03.082Z,3.10
2018-12-08T11:16:07.817Z,3.27
2018-12-08T11:17:11.917Z,3.92
2018-12-08T11:18:16.191Z,2.77
2018-12-08T11:19:26.840Z,3.08
2018-12-08T11:20:30.956Z,3.80
2018-12-08T11:21:35.119Z,2.62
2018-12-08T11:22:39.191Z,5.37
2018-12-08T11:23:43.239Z,4.72
2018-12-08T11:24:47.364Z,2.80
2018-12-08T11:25:51.540Z,3.65
2018-12-08T11:26:55.672Z,3.22
2018-12-08T11:27:59.640Z,3.33
2018-12-08T11:29:03.922Z,4.30
2018-12-08T11:30:08.006Z,2.75
2018-12-08T11:31:14.037Z,5.42
2018-12-08T11:32:18.885Z,3.47
2018-12-08T11:33:23.506Z,3.00
2018-12-08T11:34:27.823Z,2.65
2018-12-08T11:35:32.872Z,2.75
2018-12-08T11:36:36.903Z,2.50
2018-12-08T11:37:40.989Z,2.45
2018-12-08T11:38:45.016Z,2.90
2018-12-08T11:39:49.090Z,2.67
2018-12-08T11:40:53.222Z,2.40
2018-12-08T11:41:57.546Z,2.33
2018-12-08T11:43:01.756Z,2.33
2018-12-08T11:44:06.466Z,2.30
2018-12-08T11:45:10.686Z,2.40
2018-12-08T11:46:14.731Z,2.80
2018-12-08T11:47:18.837Z,2.80
2018-12-08T11:48:22.956Z,2.98
2018-12-08T11:49:27.298Z,2.52
2018-12-08T11:50:31.496Z,3.02
2018-12-08T11:51:35.691Z,2.22
2018-12-08T11:52:39.869Z,2.25
2018-12-08T11:53:44.033Z,2.87
2018-12-08T11:54:48.117Z,1.92
2018-12-08T11:55:52.173Z,2.90
2018-12-08T11:56:56.424Z,2.22
2018-12-08T11:58:00.593Z,2.90
2018-12-08T11:59:05.134Z,2.87
2018-12-08T12:00:10.054Z,2.67
2018-12-08T12:01:14.391Z,2.47
2018-12-08T12:02:18.817Z,2.15
2018-12-08T12:03:23.584Z,2.25
2018-12-08T12:04:27.643Z,2.80
2018-12-08T12:05:31.763Z,2.85
2018-12-08T12:06:36.121Z,3.10
2018-12-08T12:07:40.325Z,2.98
2018-12-08T12:08:44.437Z,2.25
2018-12-08T12:09:53.575Z,2.55
2018-12-08T12:10:58.725Z,2.85
2018-12-08T12:12:02.928Z,2.90
2018-12-08T12:13:07.409Z,2.33
2018-12-08T12:14:11.642Z,2.52
2018-12-08T12:15:15.755Z,3.05
2018-12-08T12:16:20.513Z,2.50
2018-12-08T12:17:24.714Z,2.27
2018-12-08T12:18:28.842Z,2.52
2018-12-08T12:19:32.963Z,2.90
2018-12-08T12:20:37.058Z,6.80
2018-12-08T12:21:41.176Z,3.58
2018-12-08T12:22:45.317Z,2.10
2018-12-08T12:23:49.424Z,2.92
2018-12-08T12:24:53.645Z,2.50
2018-12-08T12:25:57.684Z,2.45
2018-12-08T12:27:01.810Z,2.40
2018-12-08T12:28:06.177Z,2.85
2018-12-08T12:29:10.315Z,2.92
2018-12-08T12:30:14.447Z,3.10
2018-12-08T12:31:26.033Z,2.22
2018-12-08T12:32:30.032Z,2.85
2018-12-08T12:33:34.074Z,2.40
2018-12-08T12:34:38.483Z,9.28
2018-12-08T12:35:42.639Z,2.33
2018-12-08T12:36:46.920Z,3.45
2018-12-08T12:37:51.136Z,2.60
2018-12-08T12:38:55.356Z,2.75
2018-12-08T12:39:59.587Z,2.55
2018-12-08T12:41:03.830Z,3.05
2018-12-08T12:42:07.911Z,3.47
2018-12-08T12:43:12.172Z,3.67
2018-12-08T12:44:16.406Z,2.77
2018-12-08T12:45:20.563Z,2.60
2018-12-08T12:46:24.760Z,3.10
2018-12-08T12:47:28.829Z,2.60
2018-12-08T12:48:32.965Z,3.75
2018-12-08T12:49:37.043Z,2.72
2018-12-08T12:50:41.153Z,2.80
2018-12-08T12:51:45.197Z,3.27
2018-12-08T12:52:49.261Z,2.75
2018-12-08T12:53:53.596Z,3.30
2018-12-08T12:54:57.721Z,3.90
2018-12-08T12:56:01.754Z,3.83
2018-12-08T12:57:05.920Z,3.62
2018-12-08T12:58:09.999Z,5.25
2018-12-08T12:59:14.088Z,4.53
2018-12-08T13:00:18.191Z,4.85
2018-12-08T13:01:22.281Z,4.53
2018-12-08T13:02:26.279Z,3.65
2018-12-08T13:03:30.671Z,4.35
2018-12-08T13:04:34.802Z,4.37
2018-12-08T13:05:38.878Z,4.22
2018-12-08T13:06:42.993Z,3.95
2018-12-08T13:07:47.107Z,4.33
2018-12-08T13:08:51.239Z,5.00
2018-12-08T13:09:55.357Z,4.55
2018-12-08T13:10:59.368Z,4.35
2018-12-08T13:12:03.848Z,4.97
2018-12-08T13:13:07.798Z,4.92
2018-12-08T13:14:13.263Z,4.55
2018-12-08T13:15:17.611Z,6.33
2018-12-08T13:16:21.732Z,5.30
2018-12-08T13:17:28.877Z,5.62
2018-12-08T13:18:32.873Z,4.80
2018-12-08T13:19:37.005Z,4.60
2018-12-08T13:20:41.152Z,5.40
2018-12-08T13:21:45.240Z,4.70
2018-12-08T13:22:49.367Z,4.58
2018-12-08T13:23:53.518Z,4.72
2018-12-08T13:25:07.352Z,5.12
2018-12-08T13:26:11.635Z,3.98
2018-12-08T13:27:15.873Z,5.08
2018-12-08T13:28:19.962Z,5.80
2018-12-08T13:29:30.166Z,5.30
2018-12-08T13:30:34.325Z,5.55
2018-12-08T13:31:38.464Z,5.70
2018-12-08T13:32:42.578Z,5.10
2018-12-08T13:34:56.206Z,4.17
2018-12-08T13:36:01.913Z,4.78
2018-12-08T13:37:06.031Z,5.65
2018-12-08T13:38:10.121Z,7.55
2018-12-08T13:39:14.218Z,7.67
2018-12-08T13:40:18.273Z,7.65
2018-12-08T13:41:22.479Z,7.90
2018-12-08T13:42:26.536Z,8.45
2018-12-08T13:43:30.545Z,9.08
2018-12-08T13:44:38.538Z,7.20
2018-12-08T13:45:42.722Z,7.08
2018-12-08T13:46:46.923Z,5.12
2018-12-08T13:47:50.950Z,5.85
2018-12-08T13:48:55.041Z,7.72
2018-12-08T13:49:59.154Z,7.40
2018-12-08T13:51:04.652Z,6.80
2018-12-08T13:52:08.794Z,7.03
2018-12-08T13:53:12.933Z,5.83
2018-12-08T13:54:27.847Z,4.90
2018-12-08T13:55:31.888Z,5.45
2018-12-08T13:56:36.000Z,6.15
2018-12-08T13:57:40.049Z,6.10
2018-12-08T13:58:44.234Z,5.72
2018-12-08T13:59:55.442Z,5.10
2018-12-08T14:00:59.512Z,6.30
2018-12-08T14:02:03.527Z,6.67
2018-12-08T14:03:07.709Z,6.08
2018-12-08T14:04:11.716Z,7.75
2018-12-08T14:05:15.800Z,6.60
2018-12-08T14:06:20.014Z,6.92
2018-12-08T14:07:24.315Z,6.20
2018-12-08T14:08:28.485Z,6.05
2018-12-08T14:09:32.636Z,7.17
2018-12-08T14:10:36.643Z,6.25
2018-12-08T14:11:40.811Z,6.58
2018-12-08T14:12:45.157Z,5.87
2018-12-08T14:13:49.392Z,5.90
2018-12-08T14:15:00.286Z,6.12
2018-12-08T14:16:04.405Z,5.25
2018-12-08T14:17:08.737Z,5.30
2018-12-08T14:18:12.961Z,5.12
2018-12-08T14:19:17.194Z,5.28
2018-12-08T14:20:24.564Z,5.28
2018-12-08T14:21:28.694Z,5.75
2018-12-08T14:22:32.834Z,6.65
2018-12-08T14:23:36.836Z,6.37
2018-12-08T14:24:40.920Z,5.78
2018-12-08T14:25:45.282Z,5.87
2018-12-08T14:26:49.754Z,6.67